sensor_id;sensor_type;location;lat;lon;timestamp;P1;durP1;ratioP1;P2;durP2;ratioP2
13048;SDS011;6591;51.446;5.404;2023-09-19T00:01:48;8.20;;;2.33;;
13048;SDS011;6591;51.446;5.404;2023-09-19T00:04:15;6.45;;;2.17;;
13048;SDS011;6591;51.446;5.404;2023-09-19T00:06:42;9.38;;;2.28;;
13048;SDS011;6591;51.446;5.404;2023-09-19T00:09:10;5.40;;;2.67;;
13048;SDS011;6591;51.446;5.404;2023-09-19T00:11:37;5.00;;;2.22;;
13048;SDS011;6591;51.446;5.404;2023-09-19T00:14:05;6.13;;;2.10;;
13048;SDS011;6591;51.446;5.404;2023-09-19T00:16:34;7.55;;;2.45;;
13048;SDS011;6591;51.446;5.404;2023-09-19T00:19:03;4.78;;;2.20;;
13048;SDS011;6591;51.446;5.404;2023-09-19T00:21:31;6.60;;;2.22;;
13048;SDS011;6591;51.446;5.404;2023-09-19T00:23:58;5.20;;;2.10;;
13048;SDS011;6591;51.446;5.404;2023-09-19T00:26:25;8.27;;;2.43;;
13048;SDS011;6591;51.446;5.404;2023-09-19T00:28:57;6.50;;;2.30;;
13048;SDS011;6591;51.446;5.404;2023-09-19T00:31:34;4.43;;;2.10;;
13048;SDS011;6591;51.446;5.404;2023-09-19T00:34:04;6.37;;;2.30;;
13048;SDS011;6591;51.446;5.404;2023-09-19T00:36:32;9.43;;;2.50;;
13048;SDS011;6591;51.446;5.404;2023-09-19T00:39:00;5.53;;;2.13;;
13048;SDS011;6591;51.446;5.404;2023-09-19T00:41:27;6.97;;;2.30;;
13048;SDS011;6591;51.446;5.404;2023-09-19T00:43:56;6.53;;;2.27;;
13048;SDS011;6591;51.446;5.404;2023-09-19T00:46:23;3.40;;;1.80;;
13048;SDS011;6591;51.446;5.404;2023-09-19T00:48:52;7.47;;;2.30;;
13048;SDS011;6591;51.446;5.404;2023-09-19T00:51:19;6.87;;;2.20;;
13048;SDS011;6591;51.446;5.404;2023-09-19T00:53:48;5.87;;;2.47;;
13048;SDS011;6591;51.446;5.404;2023-09-19T00:56:16;8.18;;;2.60;;
13048;SDS011;6591;51.446;5.404;2023-09-19T00:58:46;5.80;;;1.90;;
13048;SDS011;6591;51.446;5.404;2023-09-19T01:01:14;7.00;;;2.53;;
13048;SDS011;6591;51.446;5.404;2023-09-19T01:03:42;6.82;;;2.63;;
13048;SDS011;6591;51.446;5.404;2023-09-19T01:06:12;5.13;;;2.03;;
13048;SDS011;6591;51.446;5.404;2023-09-19T01:08:39;4.77;;;2.30;;
13048;SDS011;6591;51.446;5.404;2023-09-19T01:11:14;6.40;;;2.53;;
13048;SDS011;6591;51.446;5.404;2023-09-19T01:16:53;4.30;;;2.20;;
13048;SDS011;6591;51.446;5.404;2023-09-19T01:25:42;6.63;;;2.30;;
13048;SDS011;6591;51.446;5.404;2023-09-19T01:31:24;3.87;;;2.00;;
13048;SDS011;6591;51.446;5.404;2023-09-19T01:34:01;5.33;;;2.40;;
13048;SDS011;6591;51.446;5.404;2023-09-19T01:36:33;5.70;;;2.30;;
13048;SDS011;6591;51.446;5.404;2023-09-19T01:39:06;7.90;;;2.30;;
13048;SDS011;6591;51.446;5.404;2023-09-19T01:41:44;6.03;;;2.20;;
13048;SDS011;6591;51.446;5.404;2023-09-19T01:53:10;6.07;;;2.37;;
13048;SDS011;6591;51.446;5.404;2023-09-19T01:55:57;5.85;;;2.20;;
13048;SDS011;6591;51.446;5.404;2023-09-19T01:58:50;7.53;;;2.03;;
13048;SDS011;6591;51.446;5.404;2023-09-19T02:01:25;7.27;;;2.00;;
13048;SDS011;6591;51.446;5.404;2023-09-19T02:03:55;7.03;;;2.28;;
13048;SDS011;6591;51.446;5.404;2023-09-19T02:06:23;7.75;;;2.45;;
13048;SDS011;6591;51.446;5.404;2023-09-19T02:08:53;4.10;;;2.07;;
13048;SDS011;6591;51.446;5.404;2023-09-19T02:11:21;7.63;;;2.10;;
13048;SDS011;6591;51.446;5.404;2023-09-19T02:13:49;8.37;;;2.37;;
13048;SDS011;6591;51.446;5.404;2023-09-19T02:16:21;6.13;;;2.10;;
13048;SDS011;6591;51.446;5.404;2023-09-19T02:18:49;4.45;;;1.65;;
13048;SDS011;6591;51.446;5.404;2023-09-19T02:21:17;4.40;;;1.90;;
13048;SDS011;6591;51.446;5.404;2023-09-19T02:23:45;5.65;;;2.15;;
13048;SDS011;6591;51.446;5.404;2023-09-19T02:26:13;4.30;;;2.03;;
13048;SDS011;6591;51.446;5.404;2023-09-19T02:28:41;8.57;;;2.20;;
13048;SDS011;6591;51.446;5.404;2023-09-19T02:31:08;6.90;;;2.10;;
13048;SDS011;6591;51.446;5.404;2023-09-19T02:33:36;5.67;;;2.30;;
13048;SDS011;6591;51.446;5.404;2023-09-19T02:36:04;5.87;;;1.97;;
13048;SDS011;6591;51.446;5.404;2023-09-19T02:38:32;5.67;;;2.07;;
13048;SDS011;6591;51.446;5.404;2023-09-19T02:41:00;6.47;;;2.20;;
13048;SDS011;6591;51.446;5.404;2023-09-19T02:43:27;7.33;;;2.50;;
13048;SDS011;6591;51.446;5.404;2023-09-19T02:45:55;4.40;;;1.80;;
13048;SDS011;6591;51.446;5.404;2023-09-19T02:48:23;5.97;;;2.10;;
13048;SDS011;6591;51.446;5.404;2023-09-19T02:50:52;8.67;;;2.60;;
13048;SDS011;6591;51.446;5.404;2023-09-19T02:53:19;7.00;;;2.33;;
13048;SDS011;6591;51.446;5.404;2023-09-19T02:55:46;6.60;;;2.40;;
13048;SDS011;6591;51.446;5.404;2023-09-19T02:58:14;5.73;;;2.10;;
13048;SDS011;6591;51.446;5.404;2023-09-19T03:00:42;6.50;;;1.93;;
13048;SDS011;6591;51.446;5.404;2023-09-19T03:03:21;4.13;;;2.00;;
13048;SDS011;6591;51.446;5.404;2023-09-19T03:05:48;4.43;;;2.03;;
13048;SDS011;6591;51.446;5.404;2023-09-19T03:08:20;7.83;;;2.57;;
13048;SDS011;6591;51.446;5.404;2023-09-19T03:10:48;5.90;;;1.93;;
13048;SDS011;6591;51.446;5.404;2023-09-19T03:13:16;6.23;;;1.90;;
13048;SDS011;6591;51.446;5.404;2023-09-19T03:15:43;5.40;;;1.93;;
13048;SDS011;6591;51.446;5.404;2023-09-19T03:18:15;7.80;;;2.03;;
13048;SDS011;6591;51.446;5.404;2023-09-19T03:20:43;6.67;;;2.33;;
13048;SDS011;6591;51.446;5.404;2023-09-19T03:23:10;4.82;;;2.05;;
13048;SDS011;6591;51.446;5.404;2023-09-19T03:25:39;5.53;;;2.03;;
13048;SDS011;6591;51.446;5.404;2023-09-19T03:28:08;4.57;;;1.97;;
13048;SDS011;6591;51.446;5.404;2023-09-19T03:30:36;4.77;;;1.90;;
13048;SDS011;6591;51.446;5.404;2023-09-19T03:33:04;5.87;;;2.07;;
13048;SDS011;6591;51.446;5.404;2023-09-19T03:35:33;3.73;;;1.83;;
13048;SDS011;6591;51.446;5.404;2023-09-19T03:38:02;6.73;;;2.23;;
13048;SDS011;6591;51.446;5.404;2023-09-19T03:40:29;7.67;;;2.53;;
13048;SDS011;6591;51.446;5.404;2023-09-19T03:43:00;5.30;;;1.70;;
13048;SDS011;6591;51.446;5.404;2023-09-19T03:45:29;5.03;;;2.10;;
13048;SDS011;6591;51.446;5.404;2023-09-19T03:47:56;9.37;;;2.17;;
13048;SDS011;6591;51.446;5.404;2023-09-19T03:50:24;5.37;;;2.10;;
13048;SDS011;6591;51.446;5.404;2023-09-19T03:52:56;5.07;;;2.33;;
13048;SDS011;6591;51.446;5.404;2023-09-19T03:55:24;6.77;;;2.27;;
13048;SDS011;6591;51.446;5.404;2023-09-19T03:57:51;5.23;;;2.13;;
13048;SDS011;6591;51.446;5.404;2023-09-19T04:00:19;5.87;;;2.17;;
13048;SDS011;6591;51.446;5.404;2023-09-19T04:02:48;5.23;;;2.00;;
13048;SDS011;6591;51.446;5.404;2023-09-19T04:05:18;5.17;;;1.73;;
13048;SDS011;6591;51.446;5.404;2023-09-19T04:07:45;7.83;;;2.70;;
13048;SDS011;6591;51.446;5.404;2023-09-19T04:10:13;6.93;;;1.93;;
13048;SDS011;6591;51.446;5.404;2023-09-19T04:12:41;6.83;;;2.40;;
13048;SDS011;6591;51.446;5.404;2023-09-19T04:15:21;6.23;;;2.60;;
13048;SDS011;6591;51.446;5.404;2023-09-19T04:17:52;5.80;;;2.20;;
13048;SDS011;6591;51.446;5.404;2023-09-19T04:20:19;5.73;;;2.40;;
13048;SDS011;6591;51.446;5.404;2023-09-19T04:22:51;6.63;;;1.93;;
13048;SDS011;6591;51.446;5.404;2023-09-19T04:25:18;4.73;;;2.23;;
13048;SDS011;6591;51.446;5.404;2023-09-19T04:27:47;7.00;;;2.23;;
13048;SDS011;6591;51.446;5.404;2023-09-19T04:30:14;6.43;;;2.10;;
13048;SDS011;6591;51.446;5.404;2023-09-19T04:32:42;6.07;;;1.80;;
13048;SDS011;6591;51.446;5.404;2023-09-19T04:35:10;4.60;;;1.95;;
13048;SDS011;6591;51.446;5.404;2023-09-19T04:37:38;5.93;;;1.90;;
13048;SDS011;6591;51.446;5.404;2023-09-19T04:40:07;6.75;;;2.42;;
13048;SDS011;6591;51.446;5.404;2023-09-19T04:42:40;5.95;;;2.40;;
13048;SDS011;6591;51.446;5.404;2023-09-19T04:45:08;5.65;;;1.85;;
13048;SDS011;6591;51.446;5.404;2023-09-19T04:47:36;7.20;;;2.47;;
13048;SDS011;6591;51.446;5.404;2023-09-19T04:50:06;4.90;;;1.98;;
13048;SDS011;6591;51.446;5.404;2023-09-19T04:52:39;6.75;;;2.40;;
13048;SDS011;6591;51.446;5.404;2023-09-19T04:55:12;7.72;;;2.75;;
13048;SDS011;6591;51.446;5.404;2023-09-19T04:57:44;9.33;;;2.50;;
13048;SDS011;6591;51.446;5.404;2023-09-19T05:00:20;5.53;;;2.47;;
13048;SDS011;6591;51.446;5.404;2023-09-19T05:02:54;3.63;;;1.98;;
13048;SDS011;6591;51.446;5.404;2023-09-19T05:05:25;7.93;;;2.17;;
13048;SDS011;6591;51.446;5.404;2023-09-19T05:07:53;5.93;;;2.45;;
13048;SDS011;6591;51.446;5.404;2023-09-19T05:10:21;5.63;;;2.13;;
13048;SDS011;6591;51.446;5.404;2023-09-19T05:12:48;6.45;;;2.40;;
13048;SDS011;6591;51.446;5.404;2023-09-19T05:15:19;5.28;;;2.10;;
13048;SDS011;6591;51.446;5.404;2023-09-19T05:17:49;6.03;;;2.15;;
13048;SDS011;6591;51.446;5.404;2023-09-19T05:20:23;6.30;;;1.93;;
13048;SDS011;6591;51.446;5.404;2023-09-19T05:23:03;4.23;;;2.13;;
13048;SDS011;6591;51.446;5.404;2023-09-19T05:25:36;5.85;;;2.03;;
13048;SDS011;6591;51.446;5.404;2023-09-19T05:28:10;8.05;;;2.38;;
13048;SDS011;6591;51.446;5.404;2023-09-19T05:30:41;5.60;;;1.88;;
13048;SDS011;6591;51.446;5.404;2023-09-19T05:33:14;5.17;;;2.23;;
13048;SDS011;6591;51.446;5.404;2023-09-19T05:35:42;9.48;;;2.28;;
13048;SDS011;6591;51.446;5.404;2023-09-19T05:38:10;4.87;;;2.40;;
13048;SDS011;6591;51.446;5.404;2023-09-19T05:40:39;6.13;;;1.90;;
13048;SDS011;6591;51.446;5.404;2023-09-19T05:43:11;6.73;;;2.20;;
13048;SDS011;6591;51.446;5.404;2023-09-19T05:45:45;6.75;;;2.20;;
13048;SDS011;6591;51.446;5.404;2023-09-19T05:48:13;6.20;;;1.83;;
13048;SDS011;6591;51.446;5.404;2023-09-19T05:50:43;5.20;;;2.10;;
13048;SDS011;6591;51.446;5.404;2023-09-19T05:53:13;4.88;;;1.90;;
13048;SDS011;6591;51.446;5.404;2023-09-19T05:55:41;5.13;;;2.03;;
13048;SDS011;6591;51.446;5.404;2023-09-19T05:58:09;5.90;;;2.00;;
13048;SDS011;6591;51.446;5.404;2023-09-19T06:00:37;7.80;;;2.78;;
13048;SDS011;6591;51.446;5.404;2023-09-19T06:03:05;6.68;;;1.92;;
13048;SDS011;6591;51.446;5.404;2023-09-19T06:05:34;4.22;;;2.25;;
13048;SDS011;6591;51.446;5.404;2023-09-19T06:08:07;5.37;;;2.27;;
13048;SDS011;6591;51.446;5.404;2023-09-19T06:10:34;8.73;;;2.50;;
13048;SDS011;6591;51.446;5.404;2023-09-19T06:13:02;7.60;;;2.00;;
13048;SDS011;6591;51.446;5.404;2023-09-19T06:15:36;7.18;;;2.45;;
13048;SDS011;6591;51.446;5.404;2023-09-19T06:18:04;7.13;;;2.40;;
13048;SDS011;6591;51.446;5.404;2023-09-19T06:20:32;4.77;;;2.23;;
13048;SDS011;6591;51.446;5.404;2023-09-19T06:23:00;7.20;;;2.70;;
13048;SDS011;6591;51.446;5.404;2023-09-19T06:25:29;7.73;;;2.20;;
13048;SDS011;6591;51.446;5.404;2023-09-19T06:27:56;6.70;;;2.00;;
13048;SDS011;6591;51.446;5.404;2023-09-19T06:30:24;5.35;;;1.95;;
13048;SDS011;6591;51.446;5.404;2023-09-19T06:32:56;7.03;;;2.33;;
13048;SDS011;6591;51.446;5.404;2023-09-19T06:35:26;5.88;;;1.92;;
13048;SDS011;6591;51.446;5.404;2023-09-19T06:37:56;8.27;;;2.65;;
13048;SDS011;6591;51.446;5.404;2023-09-19T06:40:25;6.55;;;2.22;;
13048;SDS011;6591;51.446;5.404;2023-09-19T06:42:52;7.55;;;2.45;;
13048;SDS011;6591;51.446;5.404;2023-09-19T06:45:20;7.95;;;2.55;;
13048;SDS011;6591;51.446;5.404;2023-09-19T06:47:55;6.88;;;2.25;;
13048;SDS011;6591;51.446;5.404;2023-09-19T06:50:25;7.63;;;2.40;;
13048;SDS011;6591;51.446;5.404;2023-09-19T06:52:54;7.47;;;2.38;;
13048;SDS011;6591;51.446;5.404;2023-09-19T06:55:25;7.32;;;2.80;;
13048;SDS011;6591;51.446;5.404;2023-09-19T06:57:59;6.70;;;2.20;;
13048;SDS011;6591;51.446;5.404;2023-09-19T07:00:29;9.57;;;2.47;;
13048;SDS011;6591;51.446;5.404;2023-09-19T07:02:59;8.77;;;2.60;;
13048;SDS011;6591;51.446;5.404;2023-09-19T07:05:28;7.45;;;2.42;;
13048;SDS011;6591;51.446;5.404;2023-09-19T07:07:57;7.85;;;2.55;;
13048;SDS011;6591;51.446;5.404;2023-09-19T07:10:27;6.35;;;1.98;;
13048;SDS011;6591;51.446;5.404;2023-09-19T07:12:58;5.60;;;2.30;;
13048;SDS011;6591;51.446;5.404;2023-09-19T07:15:31;7.85;;;2.25;;
13048;SDS011;6591;51.446;5.404;2023-09-19T07:18:02;6.25;;;2.40;;
13048;SDS011;6591;51.446;5.404;2023-09-19T07:20:30;6.97;;;2.08;;
13048;SDS011;6591;51.446;5.404;2023-09-19T07:22:59;6.32;;;2.45;;
13048;SDS011;6591;51.446;5.404;2023-09-19T07:25:29;6.25;;;2.45;;
13048;SDS011;6591;51.446;5.404;2023-09-19T07:27:57;4.15;;;2.00;;
13048;SDS011;6591;51.446;5.404;2023-09-19T07:30:28;8.02;;;2.35;;
13048;SDS011;6591;51.446;5.404;2023-09-19T07:32:56;5.25;;;2.03;;
13048;SDS011;6591;51.446;5.404;2023-09-19T07:35:23;5.97;;;2.50;;
13048;SDS011;6591;51.446;5.404;2023-09-19T07:37:52;8.90;;;2.28;;
13048;SDS011;6591;51.446;5.404;2023-09-19T07:40:19;7.43;;;2.22;;
13048;SDS011;6591;51.446;5.404;2023-09-19T07:42:48;5.82;;;2.05;;
13048;SDS011;6591;51.446;5.404;2023-09-19T07:45:15;6.45;;;2.15;;
13048;SDS011;6591;51.446;5.404;2023-09-19T07:47:46;4.97;;;2.40;;
13048;SDS011;6591;51.446;5.404;2023-09-19T07:50:18;4.80;;;2.13;;
13048;SDS011;6591;51.446;5.404;2023-09-19T07:52:47;11.55;;;2.33;;
13048;SDS011;6591;51.446;5.404;2023-09-19T07:55:17;8.82;;;2.63;;
13048;SDS011;6591;51.446;5.404;2023-09-19T07:57:46;5.30;;;2.22;;
13048;SDS011;6591;51.446;5.404;2023-09-19T08:00:14;6.97;;;2.50;;
13048;SDS011;6591;51.446;5.404;2023-09-19T08:02:42;7.45;;;2.35;;
13048;SDS011;6591;51.446;5.404;2023-09-19T08:05:12;5.03;;;2.30;;
13048;SDS011;6591;51.446;5.404;2023-09-19T08:07:45;7.05;;;2.50;;
13048;SDS011;6591;51.446;5.404;2023-09-19T08:10:15;9.18;;;2.90;;
13048;SDS011;6591;51.446;5.404;2023-09-19T08:12:46;8.75;;;2.50;;
13048;SDS011;6591;51.446;5.404;2023-09-19T08:15:20;9.27;;;2.22;;
13048;SDS011;6591;51.446;5.404;2023-09-19T08:17:48;5.75;;;2.13;;
13048;SDS011;6591;51.446;5.404;2023-09-19T08:20:15;5.80;;;2.35;;
13048;SDS011;6591;51.446;5.404;2023-09-19T08:22:51;6.85;;;2.28;;
13048;SDS011;6591;51.446;5.404;2023-09-19T08:25:24;6.82;;;2.30;;
13048;SDS011;6591;51.446;5.404;2023-09-19T08:27:55;5.57;;;2.17;;
13048;SDS011;6591;51.446;5.404;2023-09-19T08:30:24;7.53;;;2.78;;
13048;SDS011;6591;51.446;5.404;2023-09-19T08:32:57;6.93;;;2.20;;
13048;SDS011;6591;51.446;5.404;2023-09-19T08:35:46;7.50;;;2.40;;
13048;SDS011;6591;51.446;5.404;2023-09-19T08:38:13;5.65;;;2.08;;
13048;SDS011;6591;51.446;5.404;2023-09-19T08:40:40;5.38;;;2.35;;
13048;SDS011;6591;51.446;5.404;2023-09-19T08:43:09;6.55;;;2.15;;
13048;SDS011;6591;51.446;5.404;2023-09-19T08:45:36;8.38;;;2.72;;
13048;SDS011;6591;51.446;5.404;2023-09-19T08:48:23;7.30;;;2.45;;
13048;SDS011;6591;51.446;5.404;2023-09-19T08:53:36;6.65;;;2.28;;
13048;SDS011;6591;51.446;5.404;2023-09-19T08:56:32;5.30;;;2.40;;
13048;SDS011;6591;51.446;5.404;2023-09-19T08:59:02;7.22;;;2.40;;
13048;SDS011;6591;51.446;5.404;2023-09-19T09:01:50;7.80;;;2.65;;
13048;SDS011;6591;51.446;5.404;2023-09-19T09:04:21;6.13;;;2.47;;
13048;SDS011;6591;51.446;5.404;2023-09-19T09:06:50;9.25;;;2.55;;
13048;SDS011;6591;51.446;5.404;2023-09-19T09:09:21;3.60;;;1.83;;
13048;SDS011;6591;51.446;5.404;2023-09-19T09:11:48;6.55;;;2.22;;
13048;SDS011;6591;51.446;5.404;2023-09-19T09:14:20;6.15;;;2.30;;
13048;SDS011;6591;51.446;5.404;2023-09-19T09:16:48;6.25;;;2.28;;
13048;SDS011;6591;51.446;5.404;2023-09-19T09:19:15;7.70;;;2.50;;
13048;SDS011;6591;51.446;5.404;2023-09-19T09:21:51;7.40;;;2.60;;
13048;SDS011;6591;51.446;5.404;2023-09-19T09:24:27;8.10;;;2.30;;
13048;SDS011;6591;51.446;5.404;2023-09-19T09:26:57;5.93;;;2.50;;
13048;SDS011;6591;51.446;5.404;2023-09-19T09:29:41;7.53;;;2.65;;
13048;SDS011;6591;51.446;5.404;2023-09-19T09:34:48;5.13;;;2.35;;
13048;SDS011;6591;51.446;5.404;2023-09-19T09:37:27;9.57;;;2.88;;
13048;SDS011;6591;51.446;5.404;2023-09-19T09:39:59;7.53;;;3.00;;
13048;SDS011;6591;51.446;5.404;2023-09-19T09:42:40;7.03;;;2.40;;
13048;SDS011;6591;51.446;5.404;2023-09-19T09:45:13;5.32;;;2.10;;
13048;SDS011;6591;51.446;5.404;2023-09-19T09:48:00;4.75;;;2.10;;
13048;SDS011;6591;51.446;5.404;2023-09-19T09:50:48;6.65;;;2.63;;
13048;SDS011;6591;51.446;5.404;2023-09-19T09:53:24;5.32;;;2.40;;
13048;SDS011;6591;51.446;5.404;2023-09-19T09:55:59;7.25;;;2.28;;
13048;SDS011;6591;51.446;5.404;2023-09-19T09:58:34;6.60;;;2.15;;
13048;SDS011;6591;51.446;5.404;2023-09-19T10:01:04;7.03;;;2.50;;
13048;SDS011;6591;51.446;5.404;2023-09-19T10:03:42;5.15;;;2.28;;
13048;SDS011;6591;51.446;5.404;2023-09-19T10:06:14;5.63;;;2.47;;
13048;SDS011;6591;51.446;5.404;2023-09-19T10:09:03;6.07;;;2.38;;
13048;SDS011;6591;51.446;5.404;2023-09-19T10:11:59;6.65;;;2.40;;
13048;SDS011;6591;51.446;5.404;2023-09-19T10:14:33;4.32;;;1.80;;
13048;SDS011;6591;51.446;5.404;2023-09-19T10:17:05;6.60;;;2.17;;
13048;SDS011;6591;51.446;5.404;2023-09-19T10:19:37;5.68;;;2.13;;
13048;SDS011;6591;51.446;5.404;2023-09-19T10:22:15;4.60;;;2.08;;
13048;SDS011;6591;51.446;5.404;2023-09-19T10:24:49;5.68;;;2.20;;
13048;SDS011;6591;51.446;5.404;2023-09-19T10:27:22;5.47;;;2.30;;
13048;SDS011;6591;51.446;5.404;2023-09-19T10:29:53;7.53;;;2.22;;
13048;SDS011;6591;51.446;5.404;2023-09-19T10:32:25;5.35;;;2.38;;
13048;SDS011;6591;51.446;5.404;2023-09-19T10:35:02;6.72;;;2.58;;
13048;SDS011;6591;51.446;5.404;2023-09-19T10:37:34;5.28;;;2.22;;
13048;SDS011;6591;51.446;5.404;2023-09-19T10:40:05;5.30;;;2.10;;
13048;SDS011;6591;51.446;5.404;2023-09-19T10:42:35;5.75;;;2.40;;
13048;SDS011;6591;51.446;5.404;2023-09-19T10:45:09;5.47;;;2.13;;
13048;SDS011;6591;51.446;5.404;2023-09-19T10:47:40;5.47;;;2.22;;
13048;SDS011;6591;51.446;5.404;2023-09-19T10:50:08;4.72;;;2.47;;
13048;SDS011;6591;51.446;5.404;2023-09-19T10:52:38;5.72;;;2.00;;
13048;SDS011;6591;51.446;5.404;2023-09-19T10:55:09;4.00;;;1.85;;
13048;SDS011;6591;51.446;5.404;2023-09-19T10:57:46;5.68;;;2.42;;
13048;SDS011;6591;51.446;5.404;2023-09-19T11:00:14;4.18;;;2.00;;
13048;SDS011;6591;51.446;5.404;2023-09-19T11:05:39;4.95;;;1.88;;
13048;SDS011;6591;51.446;5.404;2023-09-19T11:08:08;5.85;;;1.80;;
13048;SDS011;6591;51.446;5.404;2023-09-19T11:10:47;4.85;;;1.98;;
13048;SDS011;6591;51.446;5.404;2023-09-19T11:13:24;4.68;;;2.00;;
13048;SDS011;6591;51.446;5.404;2023-09-19T11:16:04;3.38;;;1.55;;
13048;SDS011;6591;51.446;5.404;2023-09-19T11:26:51;5.25;;;1.90;;
13048;SDS011;6591;51.446;5.404;2023-09-19T11:29:40;4.70;;;2.00;;
13048;SDS011;6591;51.446;5.404;2023-09-19T11:32:08;6.43;;;2.03;;
13048;SDS011;6591;51.446;5.404;2023-09-19T11:42:47;4.35;;;1.50;;
13048;SDS011;6591;51.446;5.404;2023-09-19T11:48:13;4.07;;;1.63;;
13048;SDS011;6591;51.446;5.404;2023-09-19T11:50:45;5.07;;;1.70;;
13048;SDS011;6591;51.446;5.404;2023-09-19T11:53:13;4.47;;;1.48;;
13048;SDS011;6591;51.446;5.404;2023-09-19T11:55:42;7.30;;;1.38;;
13048;SDS011;6591;51.446;5.404;2023-09-19T11:58:12;5.20;;;1.50;;
13048;SDS011;6591;51.446;5.404;2023-09-19T12:00:43;5.15;;;1.70;;
13048;SDS011;6591;51.446;5.404;2023-09-19T12:03:12;2.50;;;1.48;;
13048;SDS011;6591;51.446;5.404;2023-09-19T12:05:45;3.40;;;1.40;;
13048;SDS011;6591;51.446;5.404;2023-09-19T12:08:14;2.28;;;1.00;;
13048;SDS011;6591;51.446;5.404;2023-09-19T12:10:50;1.70;;;1.40;;
13048;SDS011;6591;51.446;5.404;2023-09-19T12:13:20;2.75;;;1.38;;
13048;SDS011;6591;51.446;5.404;2023-09-19T12:15:48;3.90;;;1.60;;
13048;SDS011;6591;51.446;5.404;2023-09-19T12:18:28;4.05;;;1.50;;
13048;SDS011;6591;51.446;5.404;2023-09-19T12:20:57;3.55;;;1.30;;
13048;SDS011;6591;51.446;5.404;2023-09-19T12:23:25;5.53;;;1.73;;
13048;SDS011;6591;51.446;5.404;2023-09-19T12:25:52;3.63;;;1.42;;
13048;SDS011;6591;51.446;5.404;2023-09-19T12:28:27;2.92;;;1.20;;
13048;SDS011;6591;51.446;5.404;2023-09-19T12:31:07;4.00;;;1.27;;
13048;SDS011;6591;51.446;5.404;2023-09-19T12:33:35;5.47;;;1.33;;
13048;SDS011;6591;51.446;5.404;2023-09-19T12:36:23;2.50;;;1.35;;
13048;SDS011;6591;51.446;5.404;2023-09-19T12:38:57;3.67;;;1.20;;
13048;SDS011;6591;51.446;5.404;2023-09-19T12:41:26;2.28;;;1.02;;
13048;SDS011;6591;51.446;5.404;2023-09-19T12:43:53;1.85;;;1.20;;
13048;SDS011;6591;51.446;5.404;2023-09-19T12:46:21;1.98;;;1.05;;
13048;SDS011;6591;51.446;5.404;2023-09-19T12:51:48;2.63;;;1.25;;
13048;SDS011;6591;51.446;5.404;2023-09-19T12:54:21;2.38;;;1.23;;
13048;SDS011;6591;51.446;5.404;2023-09-19T12:56:51;3.60;;;1.13;;
13048;SDS011;6591;51.446;5.404;2023-09-19T12:59:28;3.25;;;1.30;;
13048;SDS011;6591;51.446;5.404;2023-09-19T13:02:03;3.20;;;1.30;;
13048;SDS011;6591;51.446;5.404;2023-09-19T13:04:40;3.00;;;1.10;;
13048;SDS011;6591;51.446;5.404;2023-09-19T13:07:10;2.55;;;1.17;;
13048;SDS011;6591;51.446;5.404;2023-09-19T13:10:11;2.08;;;0.98;;
13048;SDS011;6591;51.446;5.404;2023-09-19T13:12:44;2.42;;;1.10;;
13048;SDS011;6591;51.446;5.404;2023-09-19T13:15:14;2.13;;;1.00;;
13048;SDS011;6591;51.446;5.404;2023-09-19T13:17:47;2.13;;;1.25;;
13048;SDS011;6591;51.446;5.404;2023-09-19T13:20:22;2.33;;;1.30;;
13048;SDS011;6591;51.446;5.404;2023-09-19T13:22:56;2.00;;;1.02;;
13048;SDS011;6591;51.446;5.404;2023-09-19T13:25:33;2.97;;;0.98;;
13048;SDS011;6591;51.446;5.404;2023-09-19T13:28:01;2.35;;;1.20;;
13048;SDS011;6591;51.446;5.404;2023-09-19T13:30:31;3.60;;;1.20;;
13048;SDS011;6591;51.446;5.404;2023-09-19T13:33:07;2.17;;;1.10;;
13048;SDS011;6591;51.446;5.404;2023-09-19T13:35:40;2.35;;;1.00;;
13048;SDS011;6591;51.446;5.404;2023-09-19T13:38:07;3.33;;;1.35;;
13048;SDS011;6591;51.446;5.404;2023-09-19T13:40:38;2.13;;;1.23;;
13048;SDS011;6591;51.446;5.404;2023-09-19T13:43:08;1.05;;;0.88;;
13048;SDS011;6591;51.446;5.404;2023-09-19T13:45:37;3.03;;;1.25;;
13048;SDS011;6591;51.446;5.404;2023-09-19T13:48:04;2.72;;;1.10;;
13048;SDS011;6591;51.446;5.404;2023-09-19T13:50:32;5.07;;;1.20;;
13048;SDS011;6591;51.446;5.404;2023-09-19T13:53:01;2.78;;;1.17;;
13048;SDS011;6591;51.446;5.404;2023-09-19T13:55:30;3.55;;;1.30;;
13048;SDS011;6591;51.446;5.404;2023-09-19T13:57:57;1.70;;;1.00;;
13048;SDS011;6591;51.446;5.404;2023-09-19T14:00:24;2.42;;;1.20;;
13048;SDS011;6591;51.446;5.404;2023-09-19T14:02:52;2.25;;;1.17;;
13048;SDS011;6591;51.446;5.404;2023-09-19T14:05:19;1.83;;;1.15;;
13048;SDS011;6591;51.446;5.404;2023-09-19T14:07:47;3.70;;;1.25;;
13048;SDS011;6591;51.446;5.404;2023-09-19T14:10:15;2.80;;;1.30;;
13048;SDS011;6591;51.446;5.404;2023-09-19T14:12:44;2.35;;;1.17;;
13048;SDS011;6591;51.446;5.404;2023-09-19T14:15:12;1.50;;;1.00;;
13048;SDS011;6591;51.446;5.404;2023-09-19T14:17:40;2.30;;;1.17;;
13048;SDS011;6591;51.446;5.404;2023-09-19T14:20:09;2.40;;;1.20;;
13048;SDS011;6591;51.446;5.404;2023-09-19T14:22:37;3.33;;;1.30;;
13048;SDS011;6591;51.446;5.404;2023-09-19T14:25:05;4.57;;;1.13;;
13048;SDS011;6591;51.446;5.404;2023-09-19T14:27:32;2.03;;;1.20;;
13048;SDS011;6591;51.446;5.404;2023-09-19T14:29:59;5.65;;;1.52;;
13048;SDS011;6591;51.446;5.404;2023-09-19T14:32:27;2.22;;;1.20;;
13048;SDS011;6591;51.446;5.404;2023-09-19T14:34:54;2.15;;;1.00;;
13048;SDS011;6591;51.446;5.404;2023-09-19T14:37:22;2.35;;;1.05;;
13048;SDS011;6591;51.446;5.404;2023-09-19T14:39:49;2.45;;;1.33;;
13048;SDS011;6591;51.446;5.404;2023-09-19T14:42:17;4.38;;;1.40;;
13048;SDS011;6591;51.446;5.404;2023-09-19T14:44:44;2.67;;;1.30;;
13048;SDS011;6591;51.446;5.404;2023-09-19T14:47:14;3.15;;;1.00;;
13048;SDS011;6591;51.446;5.404;2023-09-19T14:49:46;2.13;;;1.25;;
13048;SDS011;6591;51.446;5.404;2023-09-19T14:52:13;3.15;;;1.42;;
13048;SDS011;6591;51.446;5.404;2023-09-19T14:54:42;4.60;;;1.20;;
13048;SDS011;6591;51.446;5.404;2023-09-19T14:57:10;2.42;;;1.23;;
13048;SDS011;6591;51.446;5.404;2023-09-19T14:59:38;2.47;;;1.20;;
13048;SDS011;6591;51.446;5.404;2023-09-19T15:02:06;3.00;;;1.20;;
13048;SDS011;6591;51.446;5.404;2023-09-19T15:04:34;3.17;;;1.30;;
13048;SDS011;6591;51.446;5.404;2023-09-19T15:07:01;4.00;;;1.17;;
13048;SDS011;6591;51.446;5.404;2023-09-19T15:09:29;3.28;;;1.48;;
13048;SDS011;6591;51.446;5.404;2023-09-19T15:12:00;1.33;;;1.05;;
13048;SDS011;6591;51.446;5.404;2023-09-19T15:14:27;1.77;;;1.20;;
13048;SDS011;6591;51.446;5.404;2023-09-19T15:16:56;2.13;;;1.20;;
13048;SDS011;6591;51.446;5.404;2023-09-19T15:19:23;1.90;;;1.27;;
13048;SDS011;6591;51.446;5.404;2023-09-19T15:21:50;4.45;;;1.00;;
13048;SDS011;6591;51.446;5.404;2023-09-19T15:24:17;2.97;;;1.45;;
13048;SDS011;6591;51.446;5.404;2023-09-19T15:26:46;1.67;;;1.10;;
13048;SDS011;6591;51.446;5.404;2023-09-19T15:29:14;3.08;;;1.10;;
13048;SDS011;6591;51.446;5.404;2023-09-19T15:31:42;2.78;;;1.10;;
13048;SDS011;6591;51.446;5.404;2023-09-19T15:34:10;2.40;;;1.20;;
13048;SDS011;6591;51.446;5.404;2023-09-19T15:36:40;2.63;;;1.50;;
13048;SDS011;6591;51.446;5.404;2023-09-19T15:39:08;3.05;;;1.20;;
13048;SDS011;6591;51.446;5.404;2023-09-19T15:41:38;2.53;;;1.20;;
13048;SDS011;6591;51.446;5.404;2023-09-19T15:44:11;4.28;;;1.20;;
13048;SDS011;6591;51.446;5.404;2023-09-19T15:46:42;4.22;;;1.30;;
13048;SDS011;6591;51.446;5.404;2023-09-19T15:49:11;3.20;;;1.30;;
13048;SDS011;6591;51.446;5.404;2023-09-19T15:51:39;1.98;;;1.00;;
13048;SDS011;6591;51.446;5.404;2023-09-19T15:54:08;2.60;;;1.30;;
13048;SDS011;6591;51.446;5.404;2023-09-19T15:56:42;1.73;;;1.17;;
13048;SDS011;6591;51.446;5.404;2023-09-19T15:59:11;2.80;;;1.00;;
13048;SDS011;6591;51.446;5.404;2023-09-19T16:01:40;3.47;;;1.33;;
13048;SDS011;6591;51.446;5.404;2023-09-19T16:04:11;2.05;;;1.17;;
13048;SDS011;6591;51.446;5.404;2023-09-19T16:06:39;3.75;;;1.40;;
13048;SDS011;6591;51.446;5.404;2023-09-19T16:09:08;2.28;;;1.17;;
13048;SDS011;6591;51.446;5.404;2023-09-19T16:11:39;2.05;;;1.25;;
13048;SDS011;6591;51.446;5.404;2023-09-19T16:14:11;6.35;;;1.50;;